Time;durP1;ratioP1;P1;durP2;ratioP2;P2;SDS_P1;SDS_P2;PMS_P1;PMS_P2;Temp;Humidity;BMP_temperature;BMP_pressure;BME280_temperature;BME280_humidity;BME280_pressure;Samples;Min_cycle;Max_cycle;Signal;HPM_P1;HPM_P2
2022/01/02 00:01:48;;;;;;;5.70;3.30;;;22.10;74.70;;;;;;7874391;28;20215;-58
2022/01/02 00:05:38;;;;;;;4.45;3.38;;;22.00;74.60;;;;;;7874746;28;20645;-59
2022/01/02 00:09:31;;;;;;;5.40;2.92;;;22.00;74.60;;;;;;7873530;28;20201;-59
2022/01/02 00:13:31;;;;;;;8.32;3.38;;;21.90;74.60;;;;;;7874201;28;20276;-58
2022/01/02 00:17:22;;;;;;;5.43;3.20;;;21.90;74.70;;;;;;7874170;28;20209;-59
2022/01/02 00:21:08;;;;;;;4.78;3.33;;;21.90;74.70;;;;;;7873104;28;20204;-59
2022/01/02 00:24:54;;;;;;;6.03;3.60;;;21.80;74.60;;;;;;7873821;28;20181;-58
2022/01/02 00:28:40;;;;;;;6.15;2.97;;;21.80;74.50;;;;;;7873549;28;20185;-59
2022/01/02 00:32:27;;;;;;;5.18;3.05;;;21.70;74.50;;;;;;7873626;28;20193;-58
2022/01/02 00:36:13;;;;;;;4.68;2.85;;;21.70;74.60;;;;;;7873356;28;20196;-56
2022/01/02 00:39:58;;;;;;;5.40;3.00;;;21.70;74.70;;;;;;7872153;28;20265;-58
2022/01/02 00:43:54;;;;;;;4.60;3.22;;;21.70;74.60;;;;;;7873311;28;20199;-57
2022/01/02 00:47:44;;;;;;;5.07;3.22;;;21.60;74.60;;;;;;7872990;28;20173;-57
2022/01/02 00:51:53;;;;;;;6.15;3.40;;;21.60;74.70;;;;;;7873358;28;20216;-56
2022/01/02 00:55:42;;;;;;;4.05;2.97;;;21.60;74.70;;;;;;7843259;28;20689;-58
2022/01/02 00:59:30;;;;;;;3.17;2.75;;;21.50;74.60;;;;;;7872297;28;20631;-58
2022/01/02 01:03:26;;;;;;;4.13;2.80;;;21.50;74.60;;;;;;7872691;28;20209;-59
2022/01/02 01:07:13;;;;;;;3.58;2.70;;;21.50;74.70;;;;;;7872814;28;20248;-59
2022/01/02 01:11:03;;;;;;;4.75;2.80;;;21.40;74.50;;;;;;7871977;28;20212;-57
2022/01/02 01:14:50;;;;;;;5.32;2.85;;;21.40;74.60;;;;;;7872485;28;20173;-58
2022/01/02 01:18:35;;;;;;;5.15;2.85;;;21.40;74.60;;;;;;7871444;28;20694;-61
2022/01/02 01:22:21;;;;;;;3.20;2.72;;;21.40;74.70;;;;;;7872078;28;20193;-58
2022/01/02 01:26:09;;;;;;;5.00;3.10;;;21.30;74.50;;;;;;7872043;28;20169;-58
2022/01/02 01:29:54;;;;;;;6.60;2.80;;;21.30;74.50;;;;;;7871124;28;20177;-59
2022/01/02 01:33:40;;;;;;;3.80;2.65;;;21.30;74.60;;;;;;7869802;28;20200;-60
2022/01/02 01:37:25;;;;;;;4.18;2.80;;;21.20;74.50;;;;;;7871437;28;20217;-57
2022/01/02 01:41:35;;;;;;;4.50;3.17;;;21.20;74.50;;;;;;7870835;28;20201;-59
2022/01/02 01:49:13;;;;;;;3.42;2.67;;;21.20;74.60;;;;;;7870642;28;20248;-59
2022/01/02 01:52:59;;;;;;;3.30;2.78;;;21.10;74.60;;;;;;7870334;28;20694;-59
2022/01/02 01:56:46;;;;;;;2.85;2.47;;;21.10;74.70;;;;;;7870958;28;20771;-60
2022/01/02 02:00:35;;;;;;;5.07;2.95;;;21.10;74.70;;;;;;7870200;28;20215;-60
2022/01/02 02:04:21;;;;;;;3.78;2.53;;;21.10;74.70;;;;;;7870850;28;20231;-60
2022/01/02 02:08:07;;;;;;;4.68;3.00;;;21.00;74.70;;;;;;7870031;28;20181;-60
2022/01/02 02:11:58;;;;;;;4.18;2.95;;;21.00;74.70;;;;;;7870777;28;20205;-59
2022/01/02 02:15:44;;;;;;;4.70;2.63;;;21.00;74.70;;;;;;7870546;28;20536;-58
2022/01/02 02:19:29;;;;;;;5.90;2.47;;;21.00;74.60;;;;;;7869814;28;20227;-58
2022/01/02 02:23:15;;;;;;;3.35;2.60;;;21.00;74.70;;;;;;7870324;28;20670;-60
2022/01/02 02:27:01;;;;;;;4.07;2.60;;;20.90;74.70;;;;;;7870532;28;20173;-59
2022/01/02 02:30:47;;;;;;;4.20;2.13;;;20.90;74.70;;;;;;7869813;28;20205;-58
2022/01/02 02:34:33;;;;;;;4.53;2.70;;;20.90;74.70;;;;;;7870739;28;20247;-57
2022/01/02 02:38:19;;;;;;;4.00;2.47;;;20.90;74.70;;;;;;7869676;28;20205;-55
2022/01/02 02:42:13;;;;;;;3.13;2.33;;;20.80;74.50;;;;;;7870121;28;20204;-56
2022/01/02 02:50:03;;;;;;;3.22;2.70;;;20.80;74.50;;;;;;7869539;28;20177;-56
2022/01/02 02:53:50;;;;;;;4.10;2.50;;;20.80;74.40;;;;;;7869472;28;20227;-56
2022/01/02 02:57:38;;;;;;;5.15;2.75;;;20.80;74.50;;;;;;7868725;28;20250;-55
2022/01/02 03:01:26;;;;;;;3.35;2.50;;;20.80;74.60;;;;;;7869325;28;20740;-54
2022/01/02 03:05:12;;;;;;;4.00;2.80;;;20.80;74.60;;;;;;7868440;28;20211;-59
2022/01/02 03:09:05;;;;;;;5.38;2.47;;;20.70;74.50;;;;;;7868438;28;20198;-57
2022/01/02 03:12:50;;;;;;;3.20;2.63;;;20.60;74.50;;;;;;7869037;28;20767;-57
2022/01/02 03:16:37;;;;;;;4.05;2.20;;;20.70;74.50;;;;;;7868916;28;20282;-58
2022/01/02 03:20:23;;;;;;;3.53;2.80;;;20.70;74.60;;;;;;7868213;28;20178;-56
2022/01/02 03:24:08;;;;;;;3.78;2.53;;;20.70;74.50;;;;;;7869070;28;20205;-58
2022/01/02 03:27:54;;;;;;;4.05;2.40;;;20.70;74.50;;;;;;7868235;28;20180;-57
2022/01/02 03:31:39;;;;;;;3.60;2.33;;;20.60;74.50;;;;;;7868717;28;20200;-56
2022/01/02 03:35:25;;;;;;;3.63;2.72;;;20.70;74.60;;;;;;7868746;28;20177;-58
2022/01/02 03:39:10;;;;;;;3.38;2.65;;;20.60;74.50;;;;;;7867898;28;20743;-56
2022/01/02 03:42:56;;;;;;;3.55;2.80;;;20.60;74.50;;;;;;7868765;28;20567;-57
2022/01/02 03:46:41;;;;;;;2.78;2.28;;;20.60;74.50;;;;;;7868647;28;20216;-58
2022/01/02 03:50:27;;;;;;;2.95;2.20;;;20.60;74.50;;;;;;7867686;28;20639;-60
2022/01/02 03:54:12;;;;;;;3.28;2.50;;;20.60;74.50;;;;;;7868689;28;20231;-56
2022/01/02 03:57:58;;;;;;;5.85;2.97;;;20.60;74.50;;;;;;7867760;28;20228;-59
2022/01/02 04:01:43;;;;;;;3.47;2.65;;;20.60;74.50;;;;;;7868523;28;20301;-57
2022/01/02 04:05:29;;;;;;;4.72;2.40;;;20.50;74.40;;;;;;7868521;28;20177;-57
2022/01/02 04:09:14;;;;;;;3.08;2.30;;;20.50;74.50;;;;;;7867794;28;20251;-60
2022/01/02 04:13:00;;;;;;;4.18;2.40;;;20.60;74.50;;;;;;7868373;28;20228;-59
2022/01/02 04:16:45;;;;;;;5.18;2.20;;;20.50;74.40;;;;;;7873268;28;20204;-58
2022/01/02 04:20:31;;;;;;;3.72;2.45;;;20.50;74.40;;;;;;7873495;28;20227;-55
2022/01/02 04:24:16;;;;;;;3.90;2.42;;;20.50;74.40;;;;;;7873878;28;20184;-57
2022/01/02 04:28:02;;;;;;;3.55;2.42;;;20.40;74.40;;;;;;7872960;28;20548;-60
2022/01/02 04:31:47;;;;;;;3.08;2.67;;;20.50;74.50;;;;;;7873610;28;20197;-59
2022/01/02 04:35:33;;;;;;;3.08;2.30;;;20.40;74.40;;;;;;7873483;28;20196;-59
2022/01/02 04:39:18;;;;;;;4.20;2.78;;;20.40;74.40;;;;;;7872929;28;20223;-57
2022/01/02 04:43:04;;;;;;;2.90;2.08;;;20.40;74.40;;;;;;7873183;28;20193;-56
2022/01/02 04:46:49;;;;;;;2.88;2.38;;;20.40;74.40;;;;;;7873257;28;20239;-58
2022/01/02 04:50:35;;;;;;;2.88;2.40;;;20.40;74.40;;;;;;7872191;28;20189;-59
2022/01/02 04:54:21;;;;;;;2.83;2.42;;;20.40;74.40;;;;;;7873018;28;20191;-57
2022/01/02 04:58:06;;;;;;;2.47;2.13;;;20.30;74.30;;;;;;7872205;28;20251;-59
2022/01/02 05:01:52;;;;;;;3.90;2.63;;;20.30;74.40;;;;;;7872665;28;20205;-57
2022/01/02 05:05:37;;;;;;;3.50;2.55;;;20.30;74.40;;;;;;7872588;28;20256;-59
2022/01/02 05:09:23;;;;;;;3.10;2.30;;;20.30;74.40;;;;;;7871787;28;20738;-58
2022/01/02 05:13:08;;;;;;;2.80;2.50;;;20.30;74.40;;;;;;7872253;28;20204;-57
2022/01/02 05:16:54;;;;;;;3.25;2.20;;;20.30;74.40;;;;;;7872262;28;20588;-59
2022/01/02 05:20:39;;;;;;;3.70;2.13;;;20.30;74.40;;;;;;7871573;28;20177;-56
2022/01/02 05:24:25;;;;;;;5.63;2.30;;;20.20;74.40;;;;;;7872177;28;20177;-55
2022/01/02 05:28:11;;;;;;;2.55;2.25;;;20.20;74.40;;;;;;7870261;28;20539;-59
2022/01/02 05:31:56;;;;;;;3.17;2.63;;;20.20;74.50;;;;;;7871942;28;20697;-57
2022/01/02 05:35:42;;;;;;;3.83;2.70;;;20.20;74.40;;;;;;7871809;28;20181;-57
2022/01/02 05:39:27;;;;;;;3.53;2.30;;;20.20;74.40;;;;;;7870724;28;20258;-57
2022/01/02 05:43:14;;;;;;;3.22;2.33;;;20.20;74.50;;;;;;7871138;28;20733;-54
2022/01/02 05:47:00;;;;;;;2.95;2.42;;;20.20;74.50;;;;;;7854709;28;20261;-56
2022/01/02 05:50:45;;;;;;;3.67;2.40;;;20.10;74.50;;;;;;7839546;28;20226;-56
2022/01/02 05:54:31;;;;;;;7.78;2.63;;;20.10;74.50;;;;;;7840435;28;20206;-59
2022/01/02 05:58:16;;;;;;;28.17;3.33;;;20.10;74.60;;;;;;7839530;28;20241;-59
2022/01/02 06:02:02;;;;;;;25.27;4.70;;;20.10;74.80;;;;;;7839901;28;20679;-54
2022/01/02 06:05:47;;;;;;;9.40;3.08;;;20.10;74.60;;;;;;7840219;28;20265;-56
2022/01/02 06:09:33;;;;;;;21.55;2.70;;;20.00;73.40;;;;;;7839062;28;20198;-57
2022/01/02 06:13:18;;;;;;;28.20;3.17;;;20.00;75.00;;;;;;7838379;28;20202;-58
2022/01/02 06:17:04;;;;;;;9.20;3.17;;;20.00;75.00;;;;;;7839685;28;20393;-57
2022/01/02 06:20:50;;;;;;;15.23;3.53;;;20.00;74.80;;;;;;7838567;28;20182;-58
2022/01/02 06:24:35;;;;;;;35.05;3.35;;;20.00;74.80;;;;;;7839103;28;20182;-58
2022/01/02 06:28:21;;;;;;;12.73;3.25;;;20.10;74.80;;;;;;7838415;28;20639;-58
2022/01/02 06:32:06;;;;;;;12.55;3.20;;;20.10;74.90;;;;;;7838931;28;20229;-57
2022/01/02 06:35:52;;;;;;;11.65;2.38;;;20.00;74.80;;;;;;7838988;28;20182;-59
2022/01/02 06:39:37;;;;;;;18.90;2.80;;;20.00;74.80;;;;;;7837885;28;20586;-58
2022/01/02 06:43:23;;;;;;;8.68;2.78;;;20.00;74.80;;;;;;7838902;28;20198;-57
2022/01/02 06:47:08;;;;;;;17.95;2.78;;;20.00;74.80;;;;;;7838754;28;20232;-58
2022/01/02 06:50:54;;;;;;;11.65;2.70;;;20.00;74.80;;;;;;7837522;28;20206;-57
2022/01/02 06:54:40;;;;;;;7.25;2.83;;;20.00;74.80;;;;;;7838382;28;20185;-56
2022/01/02 06:58:25;;;;;;;10.27;2.83;;;19.90;74.70;;;;;;7837465;28;20208;-57
2022/01/02 07:02:11;;;;;;;9.18;2.55;;;19.90;74.80;;;;;;7838085;28;20193;-56
2022/01/02 07:05:56;;;;;;;7.50;2.67;;;19.90;74.80;;;;;;7838136;28;20851;-57
2022/01/02 07:09:42;;;;;;;10.43;2.70;;;19.90;74.70;;;;;;7837368;28;20236;-57
2022/01/02 07:13:27;;;;;;;9.55;2.72;;;19.90;74.70;;;;;;7837938;28;20197;-58
2022/01/02 07:17:12;;;;;;;13.05;2.90;;;19.90;74.80;;;;;;7837863;28;20210;-57
2022/01/02 07:20:58;;;;;;;7.80;2.40;;;19.80;74.70;;;;;;7837077;28;20190;-57
2022/01/02 07:24:50;;;;;;;12.82;2.60;;;19.90;74.80;;;;;;7837831;28;20205;-55
2022/01/02 07:28:35;;;;;;;17.02;2.70;;;19.80;74.70;;;;;;7837181;28;20174;-56
2022/01/02 07:32:21;;;;;;;12.40;2.80;;;19.80;74.70;;;;;;7838025;28;20288;-55
2022/01/02 07:36:07;;;;;;;6.47;2.50;;;19.90;74.90;;;;;;7838064;28;20201;-58
2022/01/02 07:39:52;;;;;;;10.32;2.83;;;19.90;74.70;;;;;;7837349;28;20269;-57
2022/01/02 07:43:38;;;;;;;7.47;3.00;;;19.80;74.70;;;;;;7838101;28;20190;-59
2022/01/02 07:47:23;;;;;;;10.88;2.63;;;19.80;74.70;;;;;;7837605;28;20174;-59
2022/01/02 07:51:09;;;;;;;4.18;2.80;;;19.80;74.70;;;;;;7840818;28;20706;-58
2022/01/02 07:54:54;;;;;;;10.25;3.08;;;19.80;74.70;;;;;;7844040;28;20257;-57
2022/01/02 07:58:40;;;;;;;8.38;2.88;;;19.80;74.70;;;;;;7842984;28;20257;-56
2022/01/02 08:02:25;;;;;;;6.75;2.75;;;19.80;74.70;;;;;;7843340;28;20222;-59
2022/01/02 08:06:11;;;;;;;9.18;2.50;;;19.80;74.70;;;;;;7843283;28;20261;-58
2022/01/02 08:09:56;;;;;;;6.63;2.40;;;19.80;74.70;;;;;;7842523;28;20189;-59
2022/01/02 08:13:42;;;;;;;8.00;2.70;;;19.70;74.60;;;;;;7842951;28;20259;-59
2022/01/02 08:17:28;;;;;;;6.55;2.85;;;19.70;74.60;;;;;;7842288;28;20229;-60
2022/01/02 08:21:13;;;;;;;10.60;2.63;;;19.70;74.70;;;;;;7842650;28;20186;-60
2022/01/02 08:24:59;;;;;;;8.52;2.92;;;19.70;74.70;;;;;;7842649;28;20178;-59
2022/01/02 08:28:44;;;;;;;6.18;2.97;;;19.70;74.60;;;;;;7842126;28;20544;-57
2022/01/02 08:32:30;;;;;;;6.13;3.22;;;19.70;74.60;;;;;;7842603;28;20248;-58
2022/01/02 08:36:15;;;;;;;6.38;2.80;;;19.70;74.60;;;;;;7842391;28;20558;-59
2022/01/02 08:40:01;;;;;;;6.32;2.80;;;19.70;74.60;;;;;;7841580;28;20245;-59
2022/01/02 08:43:46;;;;;;;5.57;2.88;;;19.70;74.60;;;;;;7842259;28;20197;-60
2022/01/02 08:47:32;;;;;;;4.18;2.55;;;19.70;74.60;;;;;;7841669;28;20178;-60
2022/01/02 08:51:17;;;;;;;5.32;3.08;;;19.70;74.50;;;;;;7842534;28;20291;-56
2022/01/02 08:55:04;;;;;;;3.88;2.78;;;19.70;75.50;;;;;;7842263;28;20173;-57
2022/01/02 08:58:49;;;;;;;7.15;3.08;;;19.70;74.50;;;;;;7841000;28;20206;-56
2022/01/02 09:02:35;;;;;;;4.03;2.80;;;19.70;74.50;;;;;;7840268;28;20194;-57
2022/01/02 09:06:21;;;;;;;3.40;2.40;;;19.70;74.50;;;;;;7841394;28;20208;-58
2022/01/02 09:10:06;;;;;;;3.65;2.45;;;19.70;74.50;;;;;;7840726;28;20223;-56
2022/01/02 09:13:52;;;;;;;4.57;2.65;;;19.60;74.80;;;;;;7841289;28;20202;-56
2022/01/02 09:17:38;;;;;;;3.55;2.80;;;19.60;74.50;;;;;;7840403;28;20297;-58
2022/01/02 09:21:23;;;;;;;7.72;2.83;;;19.60;74.50;;;;;;7840991;28;20255;-56
2022/01/02 09:25:10;;;;;;;4.07;3.15;;;19.60;74.50;;;;;;7841384;28;20249;-54
2022/01/02 09:28:55;;;;;;;5.47;2.55;;;19.60;74.50;;;;;;7840316;28;20178;-57
2022/01/02 09:32:41;;;;;;;4.80;2.90;;;19.60;74.60;;;;;;7840764;28;20223;-57
2022/01/02 09:36:26;;;;;;;4.57;3.30;;;19.60;74.60;;;;;;7840532;28;20201;-58
2022/01/02 09:40:12;;;;;;;5.93;3.47;;;19.60;74.70;;;;;;7839866;28;20185;-57
2022/01/02 09:43:58;;;;;;;3.40;3.10;;;19.60;74.70;;;;;;7840464;28;20198;-57
2022/01/02 09:47:44;;;;;;;4.22;2.90;;;19.60;74.80;;;;;;7839712;28;20526;-58
2022/01/02 09:51:29;;;;;;;5.90;3.33;;;19.60;74.80;;;;;;7840039;28;20229;-57
2022/01/02 09:55:15;;;;;;;4.40;3.17;;;19.60;74.80;;;;;;7840135;28;20189;-57
2022/01/02 09:59:02;;;;;;;3.75;2.55;;;19.60;74.80;;;;;;7839266;28;20564;-56
2022/01/02 10:03:02;;;;;;;6.15;3.63;;;19.50;74.70;;;;;;7839850;28;20193;-57
2022/01/02 10:06:48;;;;;;;4.82;3.60;;;19.50;74.80;;;;;;7839886;28;20202;-56
2022/01/02 10:10:34;;;;;;;5.00;3.40;;;19.50;74.80;;;;;;7839241;28;20173;-58
2022/01/02 10:14:19;;;;;;;6.88;3.47;;;19.50;74.80;;;;;;7839276;28;20185;-57
2022/01/02 10:18:09;;;;;;;4.38;3.63;;;19.50;74.80;;;;;;7838741;28;20269;-59
2022/01/02 10:22:02;;;;;;;4.97;3.35;;;19.50;74.80;;;;;;7839278;28;20198;-55
2022/01/02 10:25:56;;;;;;;6.70;3.22;;;19.50;75.00;;;;;;7839103;28;20182;-58
2022/01/02 10:30:03;;;;;;;5.13;3.47;;;19.50;75.10;;;;;;7838593;28;20193;-57
2022/01/02 10:33:50;;;;;;;4.70;3.28;;;19.50;75.10;;;;;;7838785;28;20631;-56
2022/01/02 10:37:37;;;;;;;4.55;3.22;;;19.50;75.10;;;;;;7838246;28;20202;-59
2022/01/02 10:41:42;;;;;;;4.53;3.30;;;19.50;75.10;;;;;;7838449;28;20198;-59
2022/01/02 10:45:31;;;;;;;3.83;2.72;;;19.50;75.10;;;;;;7839120;28;20220;-58
2022/01/02 10:49:17;;;;;;;6.13;3.58;;;19.40;75.10;;;;;;7837824;28;20264;-59
2022/01/02 10:53:17;;;;;;;4.88;3.40;;;19.50;75.10;;;;;;7838325;28;20224;-57
2022/01/02 10:57:02;;;;;;;5.80;3.70;;;19.50;75.20;;;;;;7838286;28;20209;-59
2022/01/02 11:00:50;;;;;;;5.38;3.75;;;19.40;75.10;;;;;;7837545;28;20212;-59
2022/01/02 11:04:37;;;;;;;5.90;3.30;;;19.40;75.10;;;;;;7838157;28;20592;-58
2022/01/02 11:08:24;;;;;;;5.85;3.63;;;19.40;75.10;;;;;;7837387;28;20697;-57
2022/01/02 11:12:10;;;;;;;4.25;3.25;;;19.40;75.10;;;;;;7837855;28;20667;-59
2022/01/02 11:16:00;;;;;;;5.80;2.70;;;19.40;75.10;;;;;;7838044;28;20182;-59
2022/01/02 11:19:46;;;;;;;7.97;3.20;;;19.40;74.80;;;;;;7837410;28;20220;-59
2022/01/02 11:23:49;;;;;;;12.13;3.40;;;19.50;74.80;;;;;;7837537;28;20190;-59
2022/01/02 11:27:50;;;;;;;13.63;3.10;;;19.40;75.50;;;;;;7837348;28;20224;-59
2022/01/02 11:31:39;;;;;;;13.45;3.72;;;19.40;74.80;;;;;;7837892;28;20836;-58
2022/01/02 11:35:31;;;;;;;19.67;3.97;;;19.40;75.20;;;;;;7838211;28;20260;-59
2022/01/02 11:39:16;;;;;;;21.05;4.22;;;19.40;75.30;;;;;;7837465;28;20202;-58
2022/01/02 11:43:02;;;;;;;15.55;3.65;;;19.40;75.40;;;;;;7838065;28;20251;-56
2022/01/02 11:46:58;;;;;;;15.85;4.68;;;19.30;75.50;;;;;;7838157;28;20190;-55
2022/01/02 11:50:44;;;;;;;9.80;3.80;;;19.30;75.50;;;;;;7836982;28;20236;-58
2022/01/02 11:54:35;;;;;;;11.50;3.70;;;19.30;75.50;;;;;;7837665;28;20788;-55
2022/01/02 11:58:38;;;;;;;19.90;3.95;;;19.30;75.50;;;;;;7836848;28;20197;-56
2022/01/02 12:02:26;;;;;;;9.55;3.67;;;19.30;75.50;;;;;;7837825;28;20286;-56
2022/01/02 12:06:19;;;;;;;11.82;3.72;;;19.30;75.50;;;;;;7837954;22;20222;-52
2022/01/02 12:10:14;;;;;;;10.20;4.15;;;19.30;75.50;;;;;;7805986;28;20577;-52
2022/01/02 12:14:04;;;;;;;14.60;4.68;;;19.20;75.50;;;;;;7806561;28;20178;-54
2022/01/02 12:18:17;;;;;;;12.02;4.35;;;19.20;75.50;;;;;;7805500;28;20195;-56
2022/01/02 12:22:12;;;;;;;9.25;3.70;;;19.20;75.70;;;;;;7806271;28;20171;-52
2022/01/02 12:26:08;;;;;;;13.73;3.60;;;19.20;75.50;;;;;;7806361;28;20199;-53
2022/01/02 12:29:54;;;;;;;11.02;3.40;;;19.20;75.50;;;;;;7805435;28;20257;-54
2022/01/02 12:33:40;;;;;;;15.38;4.38;;;19.20;75.30;;;;;;7806472;28;20183;-53
2022/01/02 12:37:29;;;;;;;16.13;4.35;;;19.20;75.40;;;;;;7809728;28;20206;-56
2022/01/02 12:41:16;;;;;;;8.55;3.83;;;19.20;75.50;;;;;;7811308;28;20238;-54
2022/01/02 12:45:05;;;;;;;10.48;4.38;;;19.20;75.50;;;;;;7811368;28;20198;-53
2022/01/02 12:48:54;;;;;;;12.77;4.03;;;19.20;75.50;;;;;;7810711;28;20643;-52
2022/01/02 12:52:40;;;;;;;11.38;4.68;;;19.20;75.50;;;;;;7811174;28;20233;-53
2022/01/02 12:56:42;;;;;;;11.32;3.72;;;19.20;75.50;;;;;;7810971;28;20253;-53
2022/01/02 13:00:27;;;;;;;12.05;4.07;;;19.20;75.50;;;;;;7810324;28;20179;-62
2022/01/02 13:04:13;;;;;;;17.13;4.43;;;19.20;75.50;;;;;;7811323;28;20178;-53
2022/01/02 13:08:01;;;;;;;10.18;3.92;;;19.10;75.40;;;;;;7810283;28;20218;-55
2022/01/02 13:11:47;;;;;;;6.35;3.70;;;19.10;75.50;;;;;;7811331;28;20175;-52
2022/01/02 13:15:32;;;;;;;8.88;3.83;;;19.10;75.50;;;;;;7810744;28;20209;-52
2022/01/02 13:19:18;;;;;;;8.93;4.28;;;19.10;75.50;;;;;;7809873;28;20257;-52
2022/01/02 13:23:03;;;;;;;8.35;3.75;;;19.10;75.50;;;;;;7810453;28;20178;-55
2022/01/02 13:26:49;;;;;;;8.68;3.72;;;19.10;75.50;;;;;;7810272;28;20286;-52
2022/01/02 13:30:47;;;;;;;8.35;4.10;;;19.10;75.50;;;;;;7809641;28;20179;-53
2022/01/02 13:34:32;;;;;;;7.60;4.40;;;19.10;75.50;;;;;;7809973;28;20541;-54
2022/01/02 13:38:18;;;;;;;6.18;3.80;;;19.10;75.60;;;;;;7809056;28;20229;-55
2022/01/02 13:42:04;;;;;;;10.43;4.70;;;19.10;75.60;;;;;;7809760;28;20186;-53
2022/01/02 13:45:56;;;;;;;8.38;4.30;;;19.10;75.70;;;;;;7809569;28;20198;-54
2022/01/02 13:49:45;;;;;;;9.63;3.88;;;19.10;75.70;;;;;;7807967;28;20186;-53
2022/01/02 13:53:36;;;;;;;7.38;4.38;;;19.00;75.70;;;;;;7809550;28;20183;-52
2022/01/02 13:57:29;;;;;;;5.68;4.13;;;19.00;75.70;;;;;;7809291;28;20722;-52
2022/01/02 14:01:17;;;;;;;7.25;4.05;;;19.00;75.70;;;;;;7809035;28;20674;-54
2022/01/02 14:05:03;;;;;;;12.35;4.18;;;19.00;75.70;;;;;;7808843;28;20214;-52
2022/01/02 14:08:48;;;;;;;7.72;3.78;;;19.00;75.70;;;;;;7808278;28;20780;-54
2022/01/02 14:12:35;;;;;;;8.32;4.55;;;19.00;75.70;;;;;;7808817;28;20202;-54
2022/01/02 14:16:31;;;;;;;7.07;3.72;;;19.00;75.80;;;;;;7808544;28;20191;-53
2022/01/02 14:20:19;;;;;;;8.32;4.05;;;19.00;75.70;;;;;;7807842;28;20178;-52
2022/01/02 14:24:05;;;;;;;7.78;3.60;;;19.00;75.70;;;;;;7808380;28;20552;-54
2022/01/02 14:27:53;;;;;;;7.05;4.35;;;19.10;75.80;;;;;;7807621;28;20202;-53
2022/01/02 14:31:38;;;;;;;6.80;3.95;;;19.10;75.80;;;;;;7808183;28;20183;-55
2022/01/02 14:35:24;;;;;;;9.07;4.60;;;19.10;75.80;;;;;;7808187;28;20206;-53
2022/01/02 14:39:09;;;;;;;6.03;3.78;;;19.10;75.60;;;;;;7807529;28;20694;-54
2022/01/02 14:42:55;;;;;;;9.23;3.60;;;19.20;75.60;;;;;;7808055;28;20537;-54
2022/01/02 14:46:43;;;;;;;6.97;3.78;;;19.30;75.50;;;;;;7807933;28;20199;-53
2022/01/02 14:50:28;;;;;;;8.80;3.80;;;19.30;75.30;;;;;;7807291;28;20262;-53
2022/01/02 14:54:14;;;;;;;6.93;3.90;;;19.40;75.10;;;;;;7807786;28;20175;-52
2022/01/02 14:58:00;;;;;;;9.35;3.65;;;19.40;74.90;;;;;;7806854;28;20214;-53
2022/01/02 15:01:46;;;;;;;14.00;3.65;;;19.50;74.80;;;;;;7807739;28;20209;-55
2022/01/02 15:05:31;;;;;;;8.02;3.55;;;19.50;74.80;;;;;;7807442;28;20209;-53
2022/01/02 15:09:17;;;;;;;7.68;3.63;;;19.50;74.50;;;;;;7806770;28;20171;-53
2022/01/02 15:13:03;;;;;;;6.00;3.60;;;19.60;74.40;;;;;;7807238;28;20277;-55
2022/01/02 15:16:51;;;;;;;7.13;3.63;;;19.60;74.10;;;;;;7807203;28;20402;-54
2022/01/02 15:20:37;;;;;;;7.50;3.67;;;19.70;74.10;;;;;;7806476;28;20171;-54
2022/01/02 15:24:22;;;;;;;11.20;3.63;;;19.70;73.90;;;;;;7806964;28;20260;-55
2022/01/02 15:28:08;;;;;;;10.40;3.78;;;19.80;73.90;;;;;;7806458;28;20202;-52
2022/01/02 15:31:56;;;;;;;11.13;3.50;;;19.80;73.80;;;;;;7807057;28;20194;-53
2022/01/02 15:35:42;;;;;;;21.80;3.72;;;19.80;73.80;;;;;;7802962;28;20687;-52
2022/01/02 15:39:27;;;;;;;18.92;4.78;;;19.90;73.90;;;;;;7805912;28;20576;-52
2022/01/02 15:43:13;;;;;;;23.30;4.53;;;20.00;74.20;;;;;;7806420;28;20183;-54
2022/01/02 15:46:58;;;;;;;20.23;4.15;;;20.00;74.20;;;;;;7806400;28;20727;-52
2022/01/02 15:50:44;;;;;;;78.78;10.52;;;20.10;74.20;;;;;;7806098;28;20187;-53
2022/01/02 15:54:29;;;;;;;47.95;7.88;;;20.20;74.20;;;;;;7802960;28;20187;-54
2022/01/02 15:58:15;;;;;;;42.70;6.63;;;20.30;74.60;;;;;;7804806;28;20575;-54
2022/01/02 16:02:00;;;;;;;35.60;5.75;;;20.40;74.30;;;;;;7805584;28;20179;-53
2022/01/02 16:05:53;;;;;;;24.92;4.80;;;20.60;73.90;;;;;;7805284;28;20218;-53
2022/01/02 16:09:38;;;;;;;27.98;4.72;;;20.80;73.50;;;;;;7782546;28;20187;-54
2022/01/02 16:13:24;;;;;;;35.40;6.25;;;21.00;73.30;;;;;;7786516;28;20325;-56
2022/01/02 16:17:09;;;;;;;33.85;5.65;;;21.20;72.60;;;;;;7780588;28;20203;-55
2022/01/02 16:20:55;;;;;;;25.30;5.75;;;21.40;72.70;;;;;;7804484;28;20183;-55
2022/01/02 16:24:41;;;;;;;31.05;5.10;;;21.50;72.50;;;;;;7811027;28;20585;-53
2022/01/02 16:28:26;;;;;;;24.40;5.05;;;21.60;72.70;;;;;;7781627;28;20195;-54
2022/01/02 16:32:12;;;;;;;21.27;4.95;;;21.70;72.80;;;;;;7780156;28;20176;-55
2022/01/02 16:35:57;;;;;;;27.33;5.38;;;21.70;72.80;;;;;;7780507;28;20200;-52
2022/01/02 16:39:43;;;;;;;25.55;5.57;;;21.80;72.90;;;;;;7786641;28;20273;-53
2022/01/02 16:43:28;;;;;;;40.10;5.88;;;21.90;74.00;;;;;;7810624;28;20694;-54
2022/01/02 16:47:14;;;;;;;27.75;5.18;;;21.90;73.20;;;;;;7792761;28;20215;-55
2022/01/02 16:50:59;;;;;;;20.55;5.00;;;22.00;73.40;;;;;;7797296;28;20194;-53
2022/01/02 16:54:45;;;;;;;27.52;5.65;;;22.10;73.50;;;;;;7810155;28;20233;-55
2022/01/02 16:58:31;;;;;;;25.52;5.60;;;22.20;73.40;;;;;;7798711;28;20218;-56
2022/01/02 17:02:16;;;;;;;30.88;6.38;;;22.20;73.20;;;;;;7784043;28;20210;-53
2022/01/02 17:06:02;;;;;;;22.75;5.95;;;22.10;73.00;;;;;;7801190;28;20218;-53
2022/01/02 17:09:47;;;;;;;22.60;6.07;;;22.10;73.40;;;;;;7786737;28;20190;-54
2022/01/02 17:13:33;;;;;;;34.08;6.07;;;22.20;73.60;;;;;;7794303;28;20241;-54
2022/01/02 17:17:19;;;;;;;30.60;5.40;;;22.20;73.30;;;;;;7809120;28;20550;-54
2022/01/02 17:21:04;;;;;;;49.03;7.38;;;22.20;73.20;;;;;;7788191;28;20274;-51
2022/01/02 17:24:50;;;;;;;25.92;5.93;;;22.00;70.30;;;;;;7760204;28;20290;-54
2022/01/02 17:28:35;;;;;;;26.88;6.00;;;21.90;70.80;;;;;;7778107;28;20183;-52
2022/01/02 17:32:21;;;;;;;22.52;5.43;;;21.80;71.90;;;;;;7778453;28;20191;-52
2022/01/02 17:36:06;;;;;;;21.48;5.93;;;21.80;72.30;;;;;;7778353;28;20199;-54
2022/01/02 17:39:52;;;;;;;20.77;5.22;;;21.90;72.50;;;;;;7777390;28;20278;-55
2022/01/02 17:43:37;;;;;;;19.58;5.07;;;21.90;71.80;;;;;;7784300;28;20186;-54
2022/01/02 17:47:23;;;;;;;17.58;4.65;;;22.10;72.50;;;;;;7794122;28;20221;-54
2022/01/02 17:51:08;;;;;;;20.27;4.80;;;22.20;72.30;;;;;;7808012;28;20222;-55
2022/01/02 17:54:54;;;;;;;19.23;4.43;;;22.30;72.60;;;;;;7808632;28;20564;-55
2022/01/02 17:58:39;;;;;;;22.92;4.68;;;22.40;72.60;;;;;;7793928;28;20214;-55
2022/01/02 18:02:26;;;;;;;18.15;5.10;;;22.60;73.40;;;;;;7793255;28;20248;-53
2022/01/02 18:06:11;;;;;;;19.98;5.45;;;22.80;72.60;;;;;;7851531;22;20214;-57
2022/01/02 18:10:02;;;;;;;20.38;4.65;;;23.10;72.80;;;;;;7868701;28;20627;-58
2022/01/02 18:13:49;;;;;;;16.52;4.82;;;23.30;72.90;;;;;;7870079;28;20177;-58
2022/01/02 18:17:37;;;;;;;20.90;4.80;;;23.40;72.80;;;;;;7868987;28;20213;-57
2022/01/02 18:21:22;;;;;;;19.83;4.07;;;23.50;72.60;;;;;;7869419;28;20252;-58
2022/01/02 18:25:09;;;;;;;20.75;5.10;;;23.70;72.70;;;;;;7869721;28;20174;-59
2022/01/02 18:28:57;;;;;;;16.50;4.65;;;23.70;72.60;;;;;;7868918;28;20561;-58
2022/01/02 18:32:42;;;;;;;21.63;4.13;;;23.80;72.70;;;;;;7869729;28;20185;-57
2022/01/02 18:36:28;;;;;;;14.40;4.40;;;23.90;72.60;;;;;;7869530;28;20302;-58
2022/01/02 18:40:15;;;;;;;18.20;4.65;;;24.00;72.60;;;;;;7868479;28;20169;-58
2022/01/02 18:44:01;;;;;;;11.15;3.75;;;24.10;72.70;;;;;;7869363;28;20248;-59
2022/01/02 18:47:47;;;;;;;16.00;4.25;;;24.10;72.80;;;;;;7868768;28;20208;-59
2022/01/02 18:51:32;;;;;;;19.75;4.13;;;24.10;73.10;;;;;;7868740;28;20169;-59
2022/01/02 18:55:18;;;;;;;14.93;4.15;;;24.20;73.20;;;;;;7868651;28;20205;-57
2022/01/02 18:59:03;;;;;;;19.38;4.45;;;24.20;73.40;;;;;;7867736;28;20701;-58
2022/01/02 19:02:50;;;;;;;15.90;3.58;;;24.20;73.60;;;;;;7868337;28;20201;-59
2022/01/02 19:06:35;;;;;;;16.13;4.15;;;24.10;73.70;;;;;;7868357;28;20205;-59
2022/01/02 19:10:21;;;;;;;18.90;4.70;;;24.10;73.70;;;;;;7867531;28;20673;-59
2022/01/02 19:14:06;;;;;;;19.42;4.57;;;24.10;73.90;;;;;;7868228;28;20184;-58
2022/01/02 19:17:52;;;;;;;12.65;3.85;;;24.10;74.10;;;;;;7867293;28;20601;-59
2022/01/02 19:21:42;;;;;;;17.70;3.72;;;24.00;74.20;;;;;;7867827;28;20173;-59
2022/01/02 19:25:27;;;;;;;16.35;4.32;;;24.00;74.20;;;;;;7824101;28;20633;-57
2022/01/02 19:29:13;;;;;;;13.85;4.45;;;24.00;74.50;;;;;;7805304;28;20303;-59
2022/01/02 19:32:59;;;;;;;12.27;3.45;;;23.90;74.50;;;;;;7806240;28;20193;-59
2022/01/02 19:36:45;;;;;;;18.52;3.67;;;23.90;74.40;;;;;;7805767;28;20646;-59
2022/01/02 19:40:31;;;;;;;15.45;3.90;;;23.80;74.40;;;;;;7805055;28;20182;-59
2022/01/02 19:44:17;;;;;;;11.85;4.15;;;23.70;74.10;;;;;;7839900;28;20194;-59